Amherst, ME

11:18 AM EST on January 25, 2015 (GMT -0500)
Springy Pond | Change Station
CLOSE
Current Station
Personal Weather Station
Location: Otis, ME
Elevation: 300 ft
Nearby Weather Stations

Elev 300 ft 44.76 °N, 68.49 °W | Updated 14 seconds ago

Mostly Cloudy
Mostly Cloudy
28.5 °F
Feels Like 22 °F
N
6.2
Wind Variable Wind from North
Gusts 10.7 mph

Today
High -- | Low -- °F
--% Chance of Precip.
Yesterday
High -- | Low -- °F
Precip. -- in
7:00 AM 4:31 PM
Waxing Crescent, 33% visible
Pressure 29.46 in
Visibility 10.0 miles
Clouds Few 3000 ft
Few 6500 ft
Windchill 22 °F
Dew Point 9 °F
Humidity 44%
Rainfall 0.00 in
Snow Depth Not available.
UV 2 out of 12
Pollen .10 out of 12
Air Quality Not available.
Flu Activity Not available.
METAR KBGR 251553Z 28015G25KT 10SM BLSN FEW030 FEW065 M02/M14 A2945 RMK AO2 PK WND 31028/1454 SNE09 SLP976 P0000 T10221139

More Conditions Fewer Conditions

Pressure 29.46 in
Visibility 10.0 miles
Clouds Few 3000 ft
Few 6500 ft
Windchill 22 °F
Dew Point 9 °F
Humidity 44%
Rainfall 0.00 in
Snow Depth Not available.
UV 2 out of 12
Pollen .10 out of 12
Air Quality Not available.
Flu Activity Not available.
METAR KBGR 251553Z 28015G25KT 10SM BLSN FEW030 FEW065 M02/M14 A2945 RMK AO2 PK WND 31028/1454 SNE09 SLP976 P0000 T10221139

More Conditions Fewer Conditions

10-Day Weather Forecast

Almanac

Astronomy

Jan. 25, 2015 Rise Set
Actual Time
Civil Twilight
Nautical Twilight
Astronomical Twilight
Moon
Length of Visible Light
Length of Day
Tomorrow will be .
, % of the Moon is Illuminated

Today's Extremes

State Highs State Lows

Community

WunderPhotos

Upload Photos

1,789,939 photos uploaded!

WunderBlogs® & News

Nearby

Air Quality

  Air Quality AQ Index Pollutant
Not available.

Snow Depth

Station Depth Elevation

Earthquake Activity

City Distance Mag. Time & Date
Minimum magnitude displayed is 2.5.

Coastal Water Temperatures

Place Temperature

Nearby Weather Stations